Flight Track Log - Related Links

Times and Time Zones

All times are in EDT time to prevent confusion due to time zone crossing. See the N28295 flight status page for this flight to view local times or setup timezone preferences in your user account.

Time Position Orientation Groundspeed Altitude Reporting Facility
EDT Latitude Longitude Course Direction KTS MPH feet Rate Location/Type
Sun 08:10:28 PM 40.0197 -78.9733 129° Southeast 80 92 3,900  Level Cleveland Center
Sun 08:10:58 PM 40.0122 -78.9614 129° Southeast 82 94 4,200 659 Climbing Cleveland Center
Sun 08:11:59 PM 40.0000 -78.9325 119° Southeast 93 107 4,900 615 Climbing Cleveland Center
Sun 08:12:16 PM 39.9992 -78.9272 102° East 90 104 5,000 492 Climbing Cleveland Center
Sun 08:13:00 PM 39.9858 -78.9006 123° Southeast 100 115 5,400 581 Climbing Cleveland Center
Sun 08:13:18 PM 39.9814 -78.8897 118° Southeast 96 110 5,600 100 Climbing Cleveland Center
Sun 08:14:00 PM 39.9700 -78.8628 119° Southeast 124 143 5,500  Descending Cleveland Center
Sun 08:14:20 PM 39.9661 -78.8514 114° Southeast 104 120 5,600  Climbing Cleveland Center
Sun 08:15:01 PM 39.9506 -78.8167 120° Southeast 138 159 5,500  Descending Cleveland Center
Sun 08:15:22 PM 39.9478 -78.8092 116° Southeast 122 140 5,600  Climbing Cleveland Center
Sun 08:16:01 PM 39.9331 -78.7761 120° Southeast 135 155 5,500  Descending Cleveland Center
Sun 08:16:24 PM 39.9297 -78.7647 111° Southeast 135 155 5,600  Climbing Cleveland Center
Sun 08:17:02 PM 39.9156 -78.7331 120° Southeast 133 153 5,500  Descending Cleveland Center
Sun 08:17:26 PM 39.9133 -78.7225 105° East 133 153 5,600 70 Climbing Cleveland Center
Sun 08:18:28 PM 39.8919 -78.6697 118° Southeast 137 158 5,600  Level Cleveland Center
Sun 08:19:30 PM 39.8747 -78.6281 118° Southeast 134 154 5,600  Level Cleveland Center
Sun 08:20:33 PM 39.8572 -78.5844 118° Southeast 136 157 5,600  Level Cleveland Center
Sun 08:21:35 PM 39.8386 -78.5408 119° Southeast 139 160 5,600  Level Cleveland Center
Sun 08:22:37 PM 39.8219 -78.4942 115° Southeast 143 165 5,600  Level Cleveland Center
Sun 08:23:39 PM 39.8006 -78.4439 119° Southeast 137 158 5,600  Level Cleveland Center
Sun 08:24:41 PM 39.7822 -78.4011 119° Southeast 137 158 5,600  Level Cleveland Center
Sun 08:25:43 PM 39.7650 -78.3614 119° Southeast 136 157 5,600  Level Cleveland Center
Sun 08:26:45 PM 39.7444 -78.3089 117° Southeast 136 157 5,600  Level Cleveland Center
Sun 08:27:47 PM 39.7264 -78.2669 119° Southeast 135 155 5,600  Level Cleveland Center
Sun 08:28:49 PM 39.7081 -78.2244 119° Southeast 135 155 5,600  Level Cleveland Center
Sun 08:29:51 PM 39.6908 -78.1825 118° Southeast 133 153 5,600  Level Cleveland Center
Sun 08:30:54 PM 39.6717 -78.1406 121° Southeast 133 153 5,600  Level Cleveland Center
Sun 08:31:55 PM 39.6533 -78.0986 120° Southeast 134 154 5,600  Level Cleveland Center
Sun 08:32:57 PM 39.6356 -78.0556 118° Southeast 135 155 5,600 -157 Level Cleveland Center
Sun 08:33:50 PM 39.6144 -78.0133 123° Southeast 134 154 5,300 -632 Descending Washington Center
Sun 08:34:51 PM 39.5986 -77.9697 115° Southeast 134 154 4,400 -900 Descending Washington Center
Sun 08:35:50 PM 39.5806 -77.9314 121° Southeast 134 154 3,500 -504 Descending Washington Center
Sun 08:36:50 PM 39.5644 -77.8958 120° Southeast 127 146 3,400 -50 Descending Washington Center
Sun 08:37:50 PM 39.5486 -77.8550 117° Southeast 122 140 3,400  Level Washington Center
Sun 08:38:52 PM 39.5328 -77.8142 117° Southeast 122 140 3,400  Level Washington Center
Sun 08:39:52 PM 39.5167 -77.7758 119° Southeast 122 140 3,400  Level Washington Center
Sun 08:40:50 PM 39.5008 -77.7378 118° Southeast 122 140 3,400  Level Washington Center
Sun 08:41:51 PM 39.4828 -77.6994 121° Southeast 122 140 3,400 -32 Level Washington Center
Sun 08:43:59 PM 39.4500 -77.6167 117° Southeast 122 140 3,300 -32 Descending Potomac TRACON
Sun 08:44:59 PM 39.4333 -77.5667 113° Southeast 123 142 3,300  Level Potomac TRACON
Sun 08:46:59 PM 39.4000 -77.5000 123° Southeast 127 146 3,300  Level Potomac TRACON
Sun 08:47:59 PM 39.3833 -77.4500 113° Southeast 125 144 3,300  Level Potomac TRACON
Sun 08:48:59 PM 39.3667 -77.4167 123° Southeast 127 146 3,300  Level Potomac TRACON
Sun 08:50:00 PM 39.3500 -77.3667 113° Southeast 128 147 3,300  Level Potomac TRACON
Sun 08:51:00 PM 39.3333 -77.3333 123° Southeast 126 145 3,300  Level Potomac TRACON
Sun 08:53:00 PM 39.3000 -77.2500 117° Southeast 124 143 3,300  Level Potomac TRACON
Sun 08:54:00 PM 39.2833 -77.2167 123° Southeast 125 144 3,300  Level Potomac TRACON
Sun 08:55:00 PM 39.2667 -77.1833 123° Southeast 123 142 3,300 -249 Level Potomac TRACON
Sun 08:58:01 PM 39.2167 -77.0667 119° Southeast 125 144 2,300 -249 Descending Potomac TRACON
Sun 08:59:01 PM 39.2000 -77.0167 113° Southeast 126 145 2,300 -249 Level Potomac TRACON
Sun 09:02:02 PM 39.1500 -76.9000 119° Southeast 128 147 1,300 -281 Descending Potomac TRACON
Sun 09:02:56 PM 39.1333 -76.8667 123° Southeast 133 153 1,200 -150 Descending Potomac TRACON
Sun 09:04:02 PM 39.1000 -76.8333 142° Southeast 129 148 1,000 -286 Descending Potomac TRACON
Sun 09:05:02 PM 39.0833 -76.8000 123° Southeast 76 87 600 -400 Descending Potomac TRACON

Login

Don't have an account? Register now (free) for customized features, flight alerts, and more!